YMAV

Avalon Airport

Melbourne, Australia
TAF AMD YMAV 171112Z 1712/1812 36014KT 9999 FEW040 FM171500 29016KT 9999 -SHRA FEW020 BKN030 FM171900 29018KT 9999 SCT040 FM180000 28018G32KT 9999 -SHRA SCT030 SCT040 INTER 1715/1719 5000 SHRA BKN020 INTER 1808/1812 3000 SHRAGS BKN025 PROB30 INTER 1800/1808 27024G38KT 2000 TSRAGS SCT020 SCT030CB
Issued Valid From Valid To
Aug-17 @ 11:12 UTC
(4 hours ago)
Aug-17 @ 12:00 UTC
(3 hours ago)
Aug-18 @ 12:00 UTC
(in 21 hours)
Aug-17 @ 12:00 to Aug-17 @ 15:00
TAF AMD YMAV 171112Z 1712/1812 36014KT 9999 FEW040
Wind Visibility Clouds
360° at 14 knots 10,000+ meters
  • Few at 4,000' AGL
Temporary Aug-17 @ 15:00 to Aug-17 @ 19:00
INTER 1715/1719 5000 SHRA BKN020
Visibility Clouds Conditions
5,005 meters
  • Broken at 2,000' AGL
  • Rain
From Aug-17 @ 15:00 to Aug-17 @ 19:00
FM171500 29016KT 9999 -SHRA FEW020 BKN030
Wind Visibility Clouds Conditions
290° at 16 knots 10,000+ meters
  • Few at 2,000' AGL
  • Broken at 3,000' AGL
  • Light Rain
From Aug-17 @ 19:00 to Aug-18 @ 00:00
FM171900 29018KT 9999 SCT040
Wind Visibility Clouds
290° at 18 knots 10,000+ meters
  • Scattered at 4,000' AGL
Temporary  (Probability 30%) Aug-18 @ 00:00 to Aug-18 @ 08:00
PROB30 INTER 1800/1808 27024G38KT 2000 TSRAGS SCT020 SCT030CB
Wind Visibility Clouds Conditions
270° at 24 knots
 Gusting to 38 knots
1,996 meters
  • Scattered at 2,000' AGL
  • Scattered at 3,000' AGL
  • Thunderstorm
  • Rain
  • Thunderstorm
  • Small hail
From Aug-18 @ 00:00 to Aug-18 @ 12:00
FM180000 28018G32KT 9999 -SHRA SCT030 SCT040
Wind Visibility Clouds Conditions
280° at 18 knots
 Gusting to 32 knots
10,000+ meters
  • Scattered at 3,000' AGL
  • Scattered at 4,000' AGL
  • Light Rain
Temporary Aug-18 @ 08:00 to Aug-18 @ 12:00
INTER 1808/1812 3000 SHRAGS BKN025
Visibility Clouds Conditions
2,993 meters
  • Broken at 2,500' AGL
  • Rain
  • Small hail
TAF AMD YMAV 171112Z 1712/1812 36014KT 9999 FEW040 FM171500 29016KT 9999 -SHRA FEW020 BKN030 FM171900 29018KT 9999 SCT040 FM180000 28018G32KT 9999 -SHRA SCT030 SCT040 INTER 1715/1719 5000 SHRA BKN020 INTER 1808/1812 3000 SHRAGS BKN025 PROB30 INTER 1800/1808 27024G38KT 2000 TSRAGS SCT020 SCT030CB
Issued Aug-17 @ 11:12 UTC
(4 hours ago)
Valid From Aug-17 @ 12:00 UTC
(3 hours ago)
Valid To Aug-18 @ 12:00 UTC
(in 21 hours)
Aug-17 @ 12:00 - Aug-17 @ 15:00
Wind Visibility
360° at 14 knots 10,000+ meters
Clouds
  • Few at 4,000' AGL
Temporary Aug-17 @ 15:00 - Aug-17 @ 19:00
Clouds
  • Broken at 2,000' AGL
Conditions
  • Rain
From Aug-17 @ 15:00 - Aug-17 @ 19:00
Wind Visibility
290° at 16 knots 10,000+ meters
Clouds
  • Few at 2,000' AGL
  • Broken at 3,000' AGL
Conditions
  • Light Rain
From Aug-17 @ 19:00 - Aug-18 @ 00:00
Wind Visibility
290° at 18 knots 10,000+ meters
Clouds
  • Scattered at 4,000' AGL
Probability 30% Temporary Aug-18 @ 00:00 - Aug-18 @ 08:00
Wind Visibility
270° at 24 knots
 Gusting to 38 knots
1,996 meters
Clouds
  • Scattered at 2,000' AGL
  • Scattered at 3,000' AGL
Conditions
  • Thunderstorm
  • Rain
  • Thunderstorm
  • Small hail
From Aug-18 @ 00:00 - Aug-18 @ 12:00
Wind Visibility
280° at 18 knots
 Gusting to 32 knots
10,000+ meters
Clouds
  • Scattered at 3,000' AGL
  • Scattered at 4,000' AGL
Conditions
  • Light Rain
Temporary Aug-18 @ 08:00 - Aug-18 @ 12:00
Clouds
  • Broken at 2,500' AGL
Conditions
  • Rain
  • Small hail